sensor_id;sensor_type;location;lat;lon;timestamp;temperature;humidity
5222;DHT22;2630;52.036;8.514;2023-01-16T00:19:04;5.80;99.90
5222;DHT22;2630;52.036;8.514;2023-01-16T00:48:19;5.20;99.90
5222;DHT22;2630;52.036;8.514;2023-01-16T00:50:44;5.30;99.90
5222;DHT22;2630;52.036;8.514;2023-01-16T00:55:36;5.20;99.90
5222;DHT22;2630;52.036;8.514;2023-01-16T00:58:05;5.20;99.90
5222;DHT22;2630;52.036;8.514;2023-01-16T01:00:30;5.10;99.90
5222;DHT22;2630;52.036;8.514;2023-01-16T01:02:56;5.10;99.90
5222;DHT22;2630;52.036;8.514;2023-01-16T01:05:22;5.20;99.90
5222;DHT22;2630;52.036;8.514;2023-01-16T01:10:13;5.20;99.90
5222;DHT22;2630;52.036;8.514;2023-01-16T01:12:39;5.20;99.90
5222;DHT22;2630;52.036;8.514;2023-01-16T01:15:05;5.30;99.90
5222;DHT22;2630;52.036;8.514;2023-01-16T01:17:31;5.30;99.90
5222;DHT22;2630;52.036;8.514;2023-01-16T01:19:56;5.30;99.90
5222;DHT22;2630;52.036;8.514;2023-01-16T01:22:22;5.30;99.90
5222;DHT22;2630;52.036;8.514;2023-01-16T01:24:48;5.40;99.90
5222;DHT22;2630;52.036;8.514;2023-01-16T01:27:15;5.40;99.90
5222;DHT22;2630;52.036;8.514;2023-01-16T01:29:41;5.40;99.90
5222;DHT22;2630;52.036;8.514;2023-01-16T01:32:06;5.30;99.90
5222;DHT22;2630;52.036;8.514;2023-01-16T01:34:33;5.40;99.90
5222;DHT22;2630;52.036;8.514;2023-01-16T01:37:06;5.40;99.90
5222;DHT22;2630;52.036;8.514;2023-01-16T01:39:32;5.40;99.90
5222;DHT22;2630;52.036;8.514;2023-01-16T01:41:58;5.30;99.90
5222;DHT22;2630;52.036;8.514;2023-01-16T01:44:54;5.20;99.90
5222;DHT22;2630;52.036;8.514;2023-01-16T01:47:33;5.20;99.90
5222;DHT22;2630;52.036;8.514;2023-01-16T01:50:02;5.20;99.90
5222;DHT22;2630;52.036;8.514;2023-01-16T01:52:29;5.20;99.90
5222;DHT22;2630;52.036;8.514;2023-01-16T01:57:28;5.20;99.90
5222;DHT22;2630;52.036;8.514;2023-01-16T02:00:23;5.10;99.90
5222;DHT22;2630;52.036;8.514;2023-01-16T02:02:51;5.10;99.90
5222;DHT22;2630;52.036;8.514;2023-01-16T02:05:28;5.10;99.90
5222;DHT22;2630;52.036;8.514;2023-01-16T02:07:57;5.00;99.90
5222;DHT22;2630;52.036;8.514;2023-01-16T02:10:34;5.00;99.90
5222;DHT22;2630;52.036;8.514;2023-01-16T02:13:01;5.00;99.90
5222;DHT22;2630;52.036;8.514;2023-01-16T02:15:27;5.00;99.90
5222;DHT22;2630;52.036;8.514;2023-01-16T02:17:53;4.90;99.90
5222;DHT22;2630;52.036;8.514;2023-01-16T02:20:55;4.90;99.90
5222;DHT22;2630;52.036;8.514;2023-01-16T02:29:36;4.80;99.90
5222;DHT22;2630;52.036;8.514;2023-01-16T02:37:54;4.80;99.90
5222;DHT22;2630;52.036;8.514;2023-01-16T02:40:27;4.70;99.90
5222;DHT22;2630;52.036;8.514;2023-01-16T02:45:48;4.80;99.90
5222;DHT22;2630;52.036;8.514;2023-01-16T02:48:46;4.70;99.90
5222;DHT22;2630;52.036;8.514;2023-01-16T02:56:27;4.70;99.90
5222;DHT22;2630;52.036;8.514;2023-01-16T03:01:22;4.60;99.90
5222;DHT22;2630;52.036;8.514;2023-01-16T03:04:01;4.60;99.90
5222;DHT22;2630;52.036;8.514;2023-01-16T03:06:55;4.60;99.90
5222;DHT22;2630;52.036;8.514;2023-01-16T03:20:39;4.50;99.90
5222;DHT22;2630;52.036;8.514;2023-01-16T03:23:14;4.60;99.90
5222;DHT22;2630;52.036;8.514;2023-01-16T03:25:51;4.40;99.90
5222;DHT22;2630;52.036;8.514;2023-01-16T03:28:29;4.40;99.90
5222;DHT22;2630;52.036;8.514;2023-01-16T03:31:11;4.30;99.90
5222;DHT22;2630;52.036;8.514;2023-01-16T03:33:58;4.30;99.90
5222;DHT22;2630;52.036;8.514;2023-01-16T03:36:43;4.30;99.90
5222;DHT22;2630;52.036;8.514;2023-01-16T03:39:11;4.20;99.90
5222;DHT22;2630;52.036;8.514;2023-01-16T03:41:40;4.20;99.90
5222;DHT22;2630;52.036;8.514;2023-01-16T03:44:12;4.20;99.90
5222;DHT22;2630;52.036;8.514;2023-01-16T03:49:12;4.20;99.90
5222;DHT22;2630;52.036;8.514;2023-01-16T03:51:45;4.20;99.90
5222;DHT22;2630;52.036;8.514;2023-01-16T03:59:32;4.20;99.90
5222;DHT22;2630;52.036;8.514;2023-01-16T04:02:03;4.20;99.90
5222;DHT22;2630;52.036;8.514;2023-01-16T04:07:29;4.10;99.90
5222;DHT22;2630;52.036;8.514;2023-01-16T04:12:29;4.20;99.90
5222;DHT22;2630;52.036;8.514;2023-01-16T04:17:25;4.40;99.90
5222;DHT22;2630;52.036;8.514;2023-01-16T04:19:51;4.40;99.90
5222;DHT22;2630;52.036;8.514;2023-01-16T04:22:25;4.50;99.90
5222;DHT22;2630;52.036;8.514;2023-01-16T04:24:53;4.60;99.90
5222;DHT22;2630;52.036;8.514;2023-01-16T04:27:19;4.50;99.90
5222;DHT22;2630;52.036;8.514;2023-01-16T04:29:45;4.50;99.90
5222;DHT22;2630;52.036;8.514;2023-01-16T04:32:11;4.60;99.90
5222;DHT22;2630;52.036;8.514;2023-01-16T04:37:03;4.60;99.90
5222;DHT22;2630;52.036;8.514;2023-01-16T04:39:28;4.70;99.90
5222;DHT22;2630;52.036;8.514;2023-01-16T04:41:54;4.70;99.90
5222;DHT22;2630;52.036;8.514;2023-01-16T04:44:19;4.70;99.90
5222;DHT22;2630;52.036;8.514;2023-01-16T04:46:45;4.80;99.90
5222;DHT22;2630;52.036;8.514;2023-01-16T04:51:37;4.80;99.90
5222;DHT22;2630;52.036;8.514;2023-01-16T04:54:05;4.80;99.90
5222;DHT22;2630;52.036;8.514;2023-01-16T04:56:31;4.80;99.90
5222;DHT22;2630;52.036;8.514;2023-01-16T04:58:57;4.90;99.90
5222;DHT22;2630;52.036;8.514;2023-01-16T05:01:23;4.90;99.90
5222;DHT22;2630;52.036;8.514;2023-01-16T05:03:49;4.90;99.90
5222;DHT22;2630;52.036;8.514;2023-01-16T05:06:16;4.90;99.90
5222;DHT22;2630;52.036;8.514;2023-01-16T05:08:42;4.80;99.90
5222;DHT22;2630;52.036;8.514;2023-01-16T05:11:08;4.80;99.90
5222;DHT22;2630;52.036;8.514;2023-01-16T05:13:33;4.80;99.90
5222;DHT22;2630;52.036;8.514;2023-01-16T05:15:59;4.80;99.90
5222;DHT22;2630;52.036;8.514;2023-01-16T05:18:26;4.60;99.90
5222;DHT22;2630;52.036;8.514;2023-01-16T05:20:51;4.50;99.90
5222;DHT22;2630;52.036;8.514;2023-01-16T05:23:17;4.50;99.90
5222;DHT22;2630;52.036;8.514;2023-01-16T05:25:43;4.40;99.90
5222;DHT22;2630;52.036;8.514;2023-01-16T05:28:09;4.40;99.90
5222;DHT22;2630;52.036;8.514;2023-01-16T05:30:34;4.30;99.90
5222;DHT22;2630;52.036;8.514;2023-01-16T05:33:00;4.30;99.90
5222;DHT22;2630;52.036;8.514;2023-01-16T05:35:27;4.20;99.90
5222;DHT22;2630;52.036;8.514;2023-01-16T05:40:19;4.10;99.90
5222;DHT22;2630;52.036;8.514;2023-01-16T05:42:45;4.10;99.90
5222;DHT22;2630;52.036;8.514;2023-01-16T05:45:13;4.10;99.90
5222;DHT22;2630;52.036;8.514;2023-01-16T05:50:05;4.10;99.90
5222;DHT22;2630;52.036;8.514;2023-01-16T05:52:30;4.00;99.90
5222;DHT22;2630;52.036;8.514;2023-01-16T05:54:56;4.00;99.90
5222;DHT22;2630;52.036;8.514;2023-01-16T05:57:22;4.00;99.90
5222;DHT22;2630;52.036;8.514;2023-01-16T05:59:51;4.00;99.90
5222;DHT22;2630;52.036;8.514;2023-01-16T06:02:18;3.90;99.90
5222;DHT22;2630;52.036;8.514;2023-01-16T06:04:45;3.90;99.90
5222;DHT22;2630;52.036;8.514;2023-01-16T06:07:11;4.00;99.90
5222;DHT22;2630;52.036;8.514;2023-01-16T06:09:37;3.90;99.90
5222;DHT22;2630;52.036;8.514;2023-01-16T06:12:02;4.00;99.90
5222;DHT22;2630;52.036;8.514;2023-01-16T06:14:28;4.00;99.90
5222;DHT22;2630;52.036;8.514;2023-01-16T06:16:54;4.10;99.90
5222;DHT22;2630;52.036;8.514;2023-01-16T06:19:20;4.10;99.90
5222;DHT22;2630;52.036;8.514;2023-01-16T06:21:45;4.20;99.90
5222;DHT22;2630;52.036;8.514;2023-01-16T06:26:37;4.20;99.90
5222;DHT22;2630;52.036;8.514;2023-01-16T06:29:02;4.20;99.90
5222;DHT22;2630;52.036;8.514;2023-01-16T06:31:28;4.20;99.90
5222;DHT22;2630;52.036;8.514;2023-01-16T06:33:54;4.20;99.90
5222;DHT22;2630;52.036;8.514;2023-01-16T06:36:19;4.20;99.90
5222;DHT22;2630;52.036;8.514;2023-01-16T06:41:11;4.20;99.90
5222;DHT22;2630;52.036;8.514;2023-01-16T06:43:36;4.20;99.90
5222;DHT22;2630;52.036;8.514;2023-01-16T06:46:02;4.20;99.90
5222;DHT22;2630;52.036;8.514;2023-01-16T06:48:28;4.20;99.90
5222;DHT22;2630;52.036;8.514;2023-01-16T06:50:53;4.20;99.90
5222;DHT22;2630;52.036;8.514;2023-01-16T06:53:19;4.20;99.90
5222;DHT22;2630;52.036;8.514;2023-01-16T06:58:11;4.20;99.90
5222;DHT22;2630;52.036;8.514;2023-01-16T07:00:37;4.20;99.90
5222;DHT22;2630;52.036;8.514;2023-01-16T07:03:03;4.20;99.90
5222;DHT22;2630;52.036;8.514;2023-01-16T07:05:29;4.20;99.90
5222;DHT22;2630;52.036;8.514;2023-01-16T07:07:56;4.20;99.90
5222;DHT22;2630;52.036;8.514;2023-01-16T07:12:48;4.20;99.90
5222;DHT22;2630;52.036;8.514;2023-01-16T07:15:14;4.30;99.90
5222;DHT22;2630;52.036;8.514;2023-01-16T07:17:58;4.20;99.90
5222;DHT22;2630;52.036;8.514;2023-01-16T07:20:56;4.20;99.90
5222;DHT22;2630;52.036;8.514;2023-01-16T07:26:08;4.30;99.90
5222;DHT22;2630;52.036;8.514;2023-01-16T07:28:35;4.30;99.90
5222;DHT22;2630;52.036;8.514;2023-01-16T07:31:02;4.30;99.90
5222;DHT22;2630;52.036;8.514;2023-01-16T07:33:29;4.40;99.90
5222;DHT22;2630;52.036;8.514;2023-01-16T07:35:55;4.40;99.90
5222;DHT22;2630;52.036;8.514;2023-01-16T07:38:21;4.40;99.90
5222;DHT22;2630;52.036;8.514;2023-01-16T07:40:47;4.40;99.90
5222;DHT22;2630;52.036;8.514;2023-01-16T07:43:12;4.50;99.90
5222;DHT22;2630;52.036;8.514;2023-01-16T07:45:38;4.50;99.90
5222;DHT22;2630;52.036;8.514;2023-01-16T07:48:04;4.50;99.90
5222;DHT22;2630;52.036;8.514;2023-01-16T07:50:30;4.50;99.90
5222;DHT22;2630;52.036;8.514;2023-01-16T07:52:55;4.60;99.90
5222;DHT22;2630;52.036;8.514;2023-01-16T07:55:21;4.60;99.90
5222;DHT22;2630;52.036;8.514;2023-01-16T08:02:41;4.60;99.90
5222;DHT22;2630;52.036;8.514;2023-01-16T08:05:08;4.70;99.90
5222;DHT22;2630;52.036;8.514;2023-01-16T08:09:59;4.70;99.90
5222;DHT22;2630;52.036;8.514;2023-01-16T08:12:25;4.70;99.90
5222;DHT22;2630;52.036;8.514;2023-01-16T08:14:51;4.70;99.90
5222;DHT22;2630;52.036;8.514;2023-01-16T08:17:16;4.70;99.90
5222;DHT22;2630;52.036;8.514;2023-01-16T08:22:08;4.80;99.90
5222;DHT22;2630;52.036;8.514;2023-01-16T08:24:33;4.80;99.90
5222;DHT22;2630;52.036;8.514;2023-01-16T08:26:59;4.80;99.90
5222;DHT22;2630;52.036;8.514;2023-01-16T08:29:25;4.80;99.90
5222;DHT22;2630;52.036;8.514;2023-01-16T08:31:51;4.90;99.90
5222;DHT22;2630;52.036;8.514;2023-01-16T08:34:16;4.90;99.90
5222;DHT22;2630;52.036;8.514;2023-01-16T08:36:42;4.90;99.90
5222;DHT22;2630;52.036;8.514;2023-01-16T08:39:09;5.00;99.90
5222;DHT22;2630;52.036;8.514;2023-01-16T08:41:35;5.00;99.90
5222;DHT22;2630;52.036;8.514;2023-01-16T08:44:19;5.00;99.90
5222;DHT22;2630;52.036;8.514;2023-01-16T08:47:05;5.10;99.90
5222;DHT22;2630;52.036;8.514;2023-01-16T08:49:52;5.10;99.90
5222;DHT22;2630;52.036;8.514;2023-01-16T08:52:36;5.10;99.90
5222;DHT22;2630;52.036;8.514;2023-01-16T08:55:03;5.10;99.90
5222;DHT22;2630;52.036;8.514;2023-01-16T08:59:55;5.20;99.90
5222;DHT22;2630;52.036;8.514;2023-01-16T09:02:21;5.30;99.90
5222;DHT22;2630;52.036;8.514;2023-01-16T09:04:47;5.30;99.90
5222;DHT22;2630;52.036;8.514;2023-01-16T09:07:15;5.40;99.90
5222;DHT22;2630;52.036;8.514;2023-01-16T09:09:40;5.40;99.90
5222;DHT22;2630;52.036;8.514;2023-01-16T09:12:09;5.40;99.90
5222;DHT22;2630;52.036;8.514;2023-01-16T09:14:53;5.40;99.90
5222;DHT22;2630;52.036;8.514;2023-01-16T09:19:46;5.40;99.90
5222;DHT22;2630;52.036;8.514;2023-01-16T09:24:38;5.50;99.90
5222;DHT22;2630;52.036;8.514;2023-01-16T09:27:04;5.50;99.90
5222;DHT22;2630;52.036;8.514;2023-01-16T09:29:30;5.50;99.90
5222;DHT22;2630;52.036;8.514;2023-01-16T09:31:57;5.50;99.90
5222;DHT22;2630;52.036;8.514;2023-01-16T09:34:22;5.60;99.90
5222;DHT22;2630;52.036;8.514;2023-01-16T09:39:15;5.60;99.90
5222;DHT22;2630;52.036;8.514;2023-01-16T09:47:41;5.60;99.90
5222;DHT22;2630;52.036;8.514;2023-01-16T09:50:20;5.60;99.90
5222;DHT22;2630;52.036;8.514;2023-01-16T09:52:49;5.60;99.90
5222;DHT22;2630;52.036;8.514;2023-01-16T09:55:45;5.70;99.90
5222;DHT22;2630;52.036;8.514;2023-01-16T09:58:30;5.60;99.90
5222;DHT22;2630;52.036;8.514;2023-01-16T10:03:33;5.60;99.90
5222;DHT22;2630;52.036;8.514;2023-01-16T10:27:41;5.00;99.90
5222;DHT22;2630;52.036;8.514;2023-01-16T10:35:37;5.30;99.90
5222;DHT22;2630;52.036;8.514;2023-01-16T10:38:29;5.40;99.90
5222;DHT22;2630;52.036;8.514;2023-01-16T10:41:31;5.50;99.90
5222;DHT22;2630;52.036;8.514;2023-01-16T10:44:37;5.70;99.90
5222;DHT22;2630;52.036;8.514;2023-01-16T10:47:30;5.70;99.90
5222;DHT22;2630;52.036;8.514;2023-01-16T10:50:17;5.80;99.90
5222;DHT22;2630;52.036;8.514;2023-01-16T10:52:43;5.80;99.90
5222;DHT22;2630;52.036;8.514;2023-01-16T10:55:11;5.90;99.90
5222;DHT22;2630;52.036;8.514;2023-01-16T11:00:14;6.00;99.90
5222;DHT22;2630;52.036;8.514;2023-01-16T11:02:46;6.00;99.90
5222;DHT22;2630;52.036;8.514;2023-01-16T11:05:30;6.10;99.90
5222;DHT22;2630;52.036;8.514;2023-01-16T11:08:05;6.10;99.90
5222;DHT22;2630;52.036;8.514;2023-01-16T11:10:32;6.20;99.90
5222;DHT22;2630;52.036;8.514;2023-01-16T11:18:44;6.20;99.90
5222;DHT22;2630;52.036;8.514;2023-01-16T11:21:30;6.30;99.90
5222;DHT22;2630;52.036;8.514;2023-01-16T11:23:58;6.40;99.90
5222;DHT22;2630;52.036;8.514;2023-01-16T11:26:24;6.40;99.90
5222;DHT22;2630;52.036;8.514;2023-01-16T11:28:50;6.40;99.90
5222;DHT22;2630;52.036;8.514;2023-01-16T11:31:24;6.40;99.90
5222;DHT22;2630;52.036;8.514;2023-01-16T11:33:53;6.40;99.90
5222;DHT22;2630;52.036;8.514;2023-01-16T11:36:24;6.40;99.90
5222;DHT22;2630;52.036;8.514;2023-01-16T11:38:50;6.40;99.90
5222;DHT22;2630;52.036;8.514;2023-01-16T11:41:19;6.40;99.90
5222;DHT22;2630;52.036;8.514;2023-01-16T11:43:51;6.40;99.90
5222;DHT22;2630;52.036;8.514;2023-01-16T11:46:49;6.30;99.90
5222;DHT22;2630;52.036;8.514;2023-01-16T11:49:24;6.20;99.90
5222;DHT22;2630;52.036;8.514;2023-01-16T11:51:54;6.10;99.90
5222;DHT22;2630;52.036;8.514;2023-01-16T12:10:46;5.60;99.90
5222;DHT22;2630;52.036;8.514;2023-01-16T12:13:14;5.50;99.90
5222;DHT22;2630;52.036;8.514;2023-01-16T12:16:15;5.40;99.90
5222;DHT22;2630;52.036;8.514;2023-01-16T12:21:46;5.20;99.90
5222;DHT22;2630;52.036;8.514;2023-01-16T12:24:48;5.10;99.90
5222;DHT22;2630;52.036;8.514;2023-01-16T12:27:37;4.90;99.90
5222;DHT22;2630;52.036;8.514;2023-01-16T12:33:14;4.90;99.90
5222;DHT22;2630;52.036;8.514;2023-01-16T12:38:37;5.00;99.90
5222;DHT22;2630;52.036;8.514;2023-01-16T12:54:45;5.40;99.90
5222;DHT22;2630;52.036;8.514;2023-01-16T13:05:03;5.60;99.90
5222;DHT22;2630;52.036;8.514;2023-01-16T13:15:49;5.70;99.90
5222;DHT22;2630;52.036;8.514;2023-01-16T13:18:30;5.70;99.90
5222;DHT22;2630;52.036;8.514;2023-01-16T13:21:02;5.70;99.90
5222;DHT22;2630;52.036;8.514;2023-01-16T13:23:36;5.60;99.90
5222;DHT22;2630;52.036;8.514;2023-01-16T13:26:08;5.70;99.90
5222;DHT22;2630;52.036;8.514;2023-01-16T13:28:46;5.70;99.90
5222;DHT22;2630;52.036;8.514;2023-01-16T13:34:12;5.80;99.90
5222;DHT22;2630;52.036;8.514;2023-01-16T13:47:12;5.90;99.90
5222;DHT22;2630;52.036;8.514;2023-01-16T13:54:42;6.00;99.90
5222;DHT22;2630;52.036;8.514;2023-01-16T14:13:14;6.20;99.90
5222;DHT22;2630;52.036;8.514;2023-01-16T14:31:40;5.70;99.90
5222;DHT22;2630;52.036;8.514;2023-01-16T14:34:20;5.60;99.90
5222;DHT22;2630;52.036;8.514;2023-01-16T14:36:50;5.60;99.90
5222;DHT22;2630;52.036;8.514;2023-01-16T14:39:33;5.60;99.90
5222;DHT22;2630;52.036;8.514;2023-01-16T14:44:58;5.60;99.90
5222;DHT22;2630;52.036;8.514;2023-01-16T14:48:37;5.60;99.90
5222;DHT22;2630;52.036;8.514;2023-01-16T14:51:11;5.50;99.90
5222;DHT22;2630;52.036;8.514;2023-01-16T14:54:19;5.40;99.90
5222;DHT22;2630;52.036;8.514;2023-01-16T14:59:35;5.30;99.90
5222;DHT22;2630;52.036;8.514;2023-01-16T15:02:26;5.20;99.90
5222;DHT22;2630;52.036;8.514;2023-01-16T15:05:06;5.10;99.90
5222;DHT22;2630;52.036;8.514;2023-01-16T15:10:14;4.90;99.90
5222;DHT22;2630;52.036;8.514;2023-01-16T15:12:41;4.80;99.90
5222;DHT22;2630;52.036;8.514;2023-01-16T15:15:23;4.70;99.90
5222;DHT22;2630;52.036;8.514;2023-01-16T15:31:13;4.50;99.90
5222;DHT22;2630;52.036;8.514;2023-01-16T15:36:20;4.60;99.90
5222;DHT22;2630;52.036;8.514;2023-01-16T15:38:48;4.80;99.90
5222;DHT22;2630;52.036;8.514;2023-01-16T15:41:17;4.80;99.90
5222;DHT22;2630;52.036;8.514;2023-01-16T15:54:18;5.00;99.90
5222;DHT22;2630;52.036;8.514;2023-01-16T15:59:28;5.10;99.90
5222;DHT22;2630;52.036;8.514;2023-01-16T16:02:13;5.10;99.90
5222;DHT22;2630;52.036;8.514;2023-01-16T16:04:40;5.10;99.90
5222;DHT22;2630;52.036;8.514;2023-01-16T16:07:07;5.00;99.90
5222;DHT22;2630;52.036;8.514;2023-01-16T16:09:32;5.00;99.90
5222;DHT22;2630;52.036;8.514;2023-01-16T16:23:04;4.90;99.90
5222;DHT22;2630;52.036;8.514;2023-01-16T16:30:47;4.70;99.90
5222;DHT22;2630;52.036;8.514;2023-01-16T16:33:19;4.70;99.90
5222;DHT22;2630;52.036;8.514;2023-01-16T16:38:22;4.70;99.90
5222;DHT22;2630;52.036;8.514;2023-01-16T16:51:34;4.80;99.90
5222;DHT22;2630;52.036;8.514;2023-01-16T16:59:01;4.90;99.90
5222;DHT22;2630;52.036;8.514;2023-01-16T17:08:49;5.00;99.90
5222;DHT22;2630;52.036;8.514;2023-01-16T17:13:41;5.00;99.90
5222;DHT22;2630;52.036;8.514;2023-01-16T17:16:18;5.00;99.90
5222;DHT22;2630;52.036;8.514;2023-01-16T17:21:15;5.00;99.90
5222;DHT22;2630;52.036;8.514;2023-01-16T17:26:08;5.10;99.90
5222;DHT22;2630;52.036;8.514;2023-01-16T17:28:37;5.10;99.90
5222;DHT22;2630;52.036;8.514;2023-01-16T17:31:03;5.20;99.90
5222;DHT22;2630;52.036;8.514;2023-01-16T17:33:28;5.20;99.90
5222;DHT22;2630;52.036;8.514;2023-01-16T17:38:36;5.30;99.90
5222;DHT22;2630;52.036;8.514;2023-01-16T17:41:01;5.30;99.90
5222;DHT22;2630;52.036;8.514;2023-01-16T17:46:15;5.30;99.90
5222;DHT22;2630;52.036;8.514;2023-01-16T17:48:41;5.30;99.90
5222;DHT22;2630;52.036;8.514;2023-01-16T17:51:07;5.30;99.90
5222;DHT22;2630;52.036;8.514;2023-01-16T17:56:02;5.30;99.90
5222;DHT22;2630;52.036;8.514;2023-01-16T17:58:31;5.30;99.90
5222;DHT22;2630;52.036;8.514;2023-01-16T18:01:11;5.30;99.90
5222;DHT22;2630;52.036;8.514;2023-01-16T18:03:36;5.30;99.90
5222;DHT22;2630;52.036;8.514;2023-01-16T18:08:29;5.10;99.90
5222;DHT22;2630;52.036;8.514;2023-01-16T18:16:09;5.00;99.90
5222;DHT22;2630;52.036;8.514;2023-01-16T18:18:54;5.00;99.90
5222;DHT22;2630;52.036;8.514;2023-01-16T18:21:19;5.00;99.90
5222;DHT22;2630;52.036;8.514;2023-01-16T18:24:04;5.00;99.90
5222;DHT22;2630;52.036;8.514;2023-01-16T18:31:22;5.00;99.90
5222;DHT22;2630;52.036;8.514;2023-01-16T18:38:43;5.10;99.90
5222;DHT22;2630;52.036;8.514;2023-01-16T18:41:27;4.90;99.90
5222;DHT22;2630;52.036;8.514;2023-01-16T18:44:11;4.90;99.90
5222;DHT22;2630;52.036;8.514;2023-01-16T18:46:55;4.90;99.90
5222;DHT22;2630;52.036;8.514;2023-01-16T18:52:24;4.90;99.90
5222;DHT22;2630;52.036;8.514;2023-01-16T18:55:12;5.00;99.90
5222;DHT22;2630;52.036;8.514;2023-01-16T18:57:57;5.00;99.90
5222;DHT22;2630;52.036;8.514;2023-01-16T19:00:41;5.00;99.90
5222;DHT22;2630;52.036;8.514;2023-01-16T19:03:25;5.10;99.90
5222;DHT22;2630;52.036;8.514;2023-01-16T19:05:52;5.10;99.90
5222;DHT22;2630;52.036;8.514;2023-01-16T19:08:19;5.20;99.90
5222;DHT22;2630;52.036;8.514;2023-01-16T19:10:49;5.10;99.90
5222;DHT22;2630;52.036;8.514;2023-01-16T19:15:42;5.20;99.90
5222;DHT22;2630;52.036;8.514;2023-01-16T19:20:52;5.20;99.90
5222;DHT22;2630;52.036;8.514;2023-01-16T19:25:44;5.20;99.90
5222;DHT22;2630;52.036;8.514;2023-01-16T19:28:10;5.30;99.90
5222;DHT22;2630;52.036;8.514;2023-01-16T19:30:35;5.30;99.90
5222;DHT22;2630;52.036;8.514;2023-01-16T19:33:01;5.30;99.90
5222;DHT22;2630;52.036;8.514;2023-01-16T19:35:27;5.20;99.90
5222;DHT22;2630;52.036;8.514;2023-01-16T19:37:52;5.20;99.90
5222;DHT22;2630;52.036;8.514;2023-01-16T19:42:45;5.20;99.90
5222;DHT22;2630;52.036;8.514;2023-01-16T19:45:29;5.20;99.90
5222;DHT22;2630;52.036;8.514;2023-01-16T19:48:18;5.20;99.90
5222;DHT22;2630;52.036;8.514;2023-01-16T19:53:10;5.20;99.90
5222;DHT22;2630;52.036;8.514;2023-01-16T19:55:36;5.30;99.90
5222;DHT22;2630;52.036;8.514;2023-01-16T19:58:02;5.30;99.90
5222;DHT22;2630;52.036;8.514;2023-01-16T20:00:28;5.30;99.90
5222;DHT22;2630;52.036;8.514;2023-01-16T20:02:53;5.20;99.90
5222;DHT22;2630;52.036;8.514;2023-01-16T20:05:19;5.20;99.90
5222;DHT22;2630;52.036;8.514;2023-01-16T20:07:44;5.20;99.90
5222;DHT22;2630;52.036;8.514;2023-01-16T20:10:11;5.10;99.90
5222;DHT22;2630;52.036;8.514;2023-01-16T20:12:38;5.10;99.90
5222;DHT22;2630;52.036;8.514;2023-01-16T20:15:04;5.10;99.90
5222;DHT22;2630;52.036;8.514;2023-01-16T20:17:34;5.00;99.90
5222;DHT22;2630;52.036;8.514;2023-01-16T20:20:00;5.00;99.90
5222;DHT22;2630;52.036;8.514;2023-01-16T20:22:29;4.90;99.90
5222;DHT22;2630;52.036;8.514;2023-01-16T20:24:54;4.90;99.90
5222;DHT22;2630;52.036;8.514;2023-01-16T20:27:20;4.90;99.90
5222;DHT22;2630;52.036;8.514;2023-01-16T20:29:46;4.90;99.90
5222;DHT22;2630;52.036;8.514;2023-01-16T20:32:13;4.90;99.90
5222;DHT22;2630;52.036;8.514;2023-01-16T20:39:33;5.00;99.90
5222;DHT22;2630;52.036;8.514;2023-01-16T20:47:29;4.90;99.90
5222;DHT22;2630;52.036;8.514;2023-01-16T20:52:21;4.90;99.90
5222;DHT22;2630;52.036;8.514;2023-01-16T20:54:46;4.70;99.90
5222;DHT22;2630;52.036;8.514;2023-01-16T20:57:12;4.70;99.90
5222;DHT22;2630;52.036;8.514;2023-01-16T20:59:39;4.70;99.90
5222;DHT22;2630;52.036;8.514;2023-01-16T21:02:05;4.70;99.90
5222;DHT22;2630;52.036;8.514;2023-01-16T21:04:35;4.70;99.90
5222;DHT22;2630;52.036;8.514;2023-01-16T21:07:03;4.70;99.90
5222;DHT22;2630;52.036;8.514;2023-01-16T21:09:29;4.70;99.90
5222;DHT22;2630;52.036;8.514;2023-01-16T21:11:55;4.80;99.90
5222;DHT22;2630;52.036;8.514;2023-01-16T21:14:39;4.70;99.90
5222;DHT22;2630;52.036;8.514;2023-01-16T21:17:05;4.70;99.90
5222;DHT22;2630;52.036;8.514;2023-01-16T21:19:50;4.70;99.90
5222;DHT22;2630;52.036;8.514;2023-01-16T21:22:36;4.60;99.90
5222;DHT22;2630;52.036;8.514;2023-01-16T21:27:31;4.60;99.90
5222;DHT22;2630;52.036;8.514;2023-01-16T21:29:59;4.60;99.90
5222;DHT22;2630;52.036;8.514;2023-01-16T21:32:26;4.60;99.90
5222;DHT22;2630;52.036;8.514;2023-01-16T21:34:53;4.70;99.90
5222;DHT22;2630;52.036;8.514;2023-01-16T21:39:46;4.80;99.90
5222;DHT22;2630;52.036;8.514;2023-01-16T21:47:42;4.70;99.90
5222;DHT22;2630;52.036;8.514;2023-01-16T21:52:35;4.70;99.90
5222;DHT22;2630;52.036;8.514;2023-01-16T21:55:01;4.80;99.90
5222;DHT22;2630;52.036;8.514;2023-01-16T21:57:26;4.80;99.90
5222;DHT22;2630;52.036;8.514;2023-01-16T22:02:21;4.80;99.90
5222;DHT22;2630;52.036;8.514;2023-01-16T22:04:46;4.80;99.90
5222;DHT22;2630;52.036;8.514;2023-01-16T22:07:12;4.80;99.90
5222;DHT22;2630;52.036;8.514;2023-01-16T22:12:04;4.80;99.90
5222;DHT22;2630;52.036;8.514;2023-01-16T22:14:48;4.80;99.90
5222;DHT22;2630;52.036;8.514;2023-01-16T22:17:34;4.80;99.90
5222;DHT22;2630;52.036;8.514;2023-01-16T22:20:11;4.90;99.90
5222;DHT22;2630;52.036;8.514;2023-01-16T22:25:03;4.80;99.90
5222;DHT22;2630;52.036;8.514;2023-01-16T22:27:29;4.90;99.90
5222;DHT22;2630;52.036;8.514;2023-01-16T22:29:56;4.80;99.90
5222;DHT22;2630;52.036;8.514;2023-01-16T22:32:23;4.90;99.90
5222;DHT22;2630;52.036;8.514;2023-01-16T22:37:15;5.00;99.90
5222;DHT22;2630;52.036;8.514;2023-01-16T22:39:42;5.00;99.90
5222;DHT22;2630;52.036;8.514;2023-01-16T22:44:37;5.00;99.90
5222;DHT22;2630;52.036;8.514;2023-01-16T22:47:21;5.00;99.90
5222;DHT22;2630;52.036;8.514;2023-01-16T22:54:38;5.00;99.90
5222;DHT22;2630;52.036;8.514;2023-01-16T23:01:57;5.00;99.90
5222;DHT22;2630;52.036;8.514;2023-01-16T23:04:23;4.90;99.90
5222;DHT22;2630;52.036;8.514;2023-01-16T23:09:14;4.90;99.90
5222;DHT22;2630;52.036;8.514;2023-01-16T23:11:44;4.90;99.90
5222;DHT22;2630;52.036;8.514;2023-01-16T23:14:11;4.90;99.90
5222;DHT22;2630;52.036;8.514;2023-01-16T23:16:40;4.80;99.90
5222;DHT22;2630;52.036;8.514;2023-01-16T23:19:09;4.80;99.90
5222;DHT22;2630;52.036;8.514;2023-01-16T23:21:35;4.70;99.90
5222;DHT22;2630;52.036;8.514;2023-01-16T23:24:03;4.60;99.90
5222;DHT22;2630;52.036;8.514;2023-01-16T23:28:57;4.40;99.90
5222;DHT22;2630;52.036;8.514;2023-01-16T23:33:49;4.20;99.90
5222;DHT22;2630;52.036;8.514;2023-01-16T23:36:29;4.40;99.90
5222;DHT22;2630;52.036;8.514;2023-01-16T23:41:23;4.20;99.90
5222;DHT22;2630;52.036;8.514;2023-01-16T23:44:10;4.10;99.90
5222;DHT22;2630;52.036;8.514;2023-01-16T23:47:10;3.90;99.90
5222;DHT22;2630;52.036;8.514;2023-01-16T23:49:51;4.00;99.90
5222;DHT22;2630;52.036;8.514;2023-01-16T23:52:27;4.00;99.90
5222;DHT22;2630;52.036;8.514;2023-01-16T23:54:53;3.90;99.90
5222;DHT22;2630;52.036;8.514;2023-01-16T23:59:55;3.80;99.90
